Airfield :
LOGIN :

Register | Disclaimer

   EN    FR    IT 

 










Legend :    VFR   Marginal VFR   IFR   Intensive IFR   Very Intensive IFR
Visi :
Ceiling :
>= 8 km
>= 3000ft
5 to 8 km
1000 to 3000 ft
1500m to 5 km
500 to 1000 ft
800 to 1500m
200 to 500 ft
< 800m
< 200 ft
Symbols :   Thunderstorms  Fog  Heavy snow  Heavy precipitations  Wind > 20 kt
SIGMETs :     Misc.  Thunderstorms  Icing  Turbulence  Mountain Waves  Volcanic Ashes







- Airport Elevation : 79 ft
- IATA code : SPU


LDSP - Split

CURRENT METAR :
  • 300100Z AUTO VRB02KT CAVOK 14/11 Q1016

EXPIRED METARs :
  • 300030Z AUTO VRB01KT CAVOK 16/13 Q1016
  • 300000Z AUTO 24001KT CAVOK 17/12 Q1016
  • 292330Z AUTO VRB01KT CAVOK 17/11 Q1016
  • 292300Z AUTO VRB02KT CAVOK 16/10 Q1016
  • 292230Z AUTO VRB02KT CAVOK 18/11 Q1016

TAF TAF LDSP
Valid from the 30 at 00:00 until the 31 at 00:00 UTC


292325Z 3000/3024 VRB02KT CAVOK TX26/3012Z TN16/3003Z
BECMG 3010/3012 23010KT
BECMG 3016/3018 VRB02KT
No reported NOTAMs for that airfield.



MET'MAP, your aeronautical weather chart ! - Copyright ORBIFLY December 2007 - Disclaimer

ORBIFLY MET'MAP TEAM :

Programming & Development : Alexandra Zaïnal
Concept & Development : Baudouin d'Aumeries
Co-Development & Prog : Marc-Olivier Méhu
Technical & hardware support : Manuel Goepfert

Contact : metmap@orbifly.com




SOURCES & CREDITS :

   NOAA